createdAt,value
2018-12-07T00:02:21.444Z,36.40
2018-12-07T00:06:20.219Z,36.77
2018-12-07T00:08:49.613Z,35.37
2018-12-07T00:11:19.134Z,35.97
2018-12-07T00:13:48.408Z,34.43
2018-12-07T00:16:18.438Z,34.63
2018-12-07T00:18:47.742Z,35.83
2018-12-07T00:21:17.028Z,37.13
2018-12-07T00:23:46.297Z,35.50
2018-12-07T00:26:15.616Z,37.07
2018-12-07T00:28:44.924Z,34.23
2018-12-07T00:31:15.472Z,36.13
2018-12-07T00:33:45.143Z,37.73
2018-12-07T00:36:14.412Z,38.33
2018-12-07T00:38:43.704Z,40.00
2018-12-07T00:41:13.260Z,38.03
2018-12-07T00:43:42.560Z,39.10
2018-12-07T00:46:11.829Z,38.53
2018-12-07T00:48:41.094Z,37.40
2018-12-07T00:51:10.408Z,39.50
2018-12-07T00:53:40.134Z,37.63
2018-12-07T00:56:09.668Z,39.43
2018-12-07T00:58:38.865Z,39.03
2018-12-07T01:01:08.370Z,36.87
2018-12-07T01:03:37.709Z,40.00
2018-12-07T01:06:07.126Z,41.10
2018-12-07T01:08:36.433Z,39.77
2018-12-07T01:11:05.953Z,38.70
2018-12-07T01:13:35.245Z,41.37
2018-12-07T01:16:04.651Z,41.30
2018-12-07T01:18:33.915Z,40.13
2018-12-07T01:21:03.185Z,41.83
2018-12-07T01:23:32.550Z,42.93
2018-12-07T01:26:03.218Z,43.67
2018-12-07T01:28:32.421Z,40.67
2018-12-07T01:31:01.750Z,40.67
2018-12-07T01:33:31.151Z,40.73
2018-12-07T01:36:00.427Z,41.27
2018-12-07T01:38:29.692Z,39.80
2018-12-07T01:41:00.811Z,40.40
2018-12-07T01:43:30.405Z,41.93
2018-12-07T01:45:59.688Z,41.97
2018-12-07T01:48:28.910Z,41.57
2018-12-07T01:50:58.512Z,38.33
2018-12-07T01:53:27.847Z,42.33
2018-12-07T01:55:57.164Z,41.30
2018-12-07T01:58:26.397Z,41.40
2018-12-07T02:00:56.004Z,40.67
2018-12-07T02:03:25.360Z,42.37
2018-12-07T02:05:54.634Z,40.43
2018-12-07T02:08:23.890Z,41.33
2018-12-07T02:10:53.543Z,40.60
2018-12-07T02:13:22.772Z,41.97
2018-12-07T02:15:52.170Z,39.07
2018-12-07T02:18:21.574Z,40.57
2018-12-07T02:20:51.193Z,40.73
2018-12-07T02:23:20.552Z,41.47
2018-12-07T02:25:50.158Z,41.47
2018-12-07T02:28:19.389Z,41.60
2018-12-07T02:30:48.790Z,39.93
2018-12-07T02:33:17.997Z,42.60
2018-12-07T02:35:47.308Z,40.17
2018-12-07T02:38:16.532Z,40.27
2018-12-07T02:40:46.064Z,42.67
2018-12-07T02:43:15.378Z,43.03
2018-12-07T02:45:45.061Z,43.90
2018-12-07T02:48:14.553Z,40.80
2018-12-07T02:50:44.059Z,40.80
2018-12-07T02:53:13.285Z,40.40
2018-12-07T02:55:42.503Z,43.07
2018-12-07T02:58:11.733Z,40.47
2018-12-07T03:00:41.136Z,40.10
2018-12-07T03:03:10.370Z,41.87
2018-12-07T03:05:39.965Z,41.97
2018-12-07T03:08:09.288Z,45.03
2018-12-07T03:10:38.641Z,41.27
2018-12-07T03:13:07.887Z,42.43
2018-12-07T03:15:37.164Z,40.77
2018-12-07T03:18:12.930Z,42.83
2018-12-07T03:20:43.584Z,42.93
2018-12-07T03:23:12.865Z,41.83
2018-12-07T03:25:42.440Z,40.97
2018-12-07T03:28:11.765Z,44.57
2018-12-07T03:30:40.982Z,41.47
2018-12-07T03:33:10.330Z,39.33
2018-12-07T03:35:39.894Z,41.30
2018-12-07T03:38:09.116Z,42.80
2018-12-07T03:40:38.708Z,40.80
2018-12-07T03:43:08.006Z,38.23
2018-12-07T03:45:37.274Z,38.50
2018-12-07T03:48:06.582Z,38.97
2018-12-07T03:50:35.851Z,40.43
2018-12-07T03:53:05.093Z,41.93
2018-12-07T03:55:34.337Z,39.77
2018-12-07T03:58:03.610Z,39.70
2018-12-07T04:00:33.100Z,41.13
2018-12-07T04:03:02.297Z,39.77
2018-12-07T04:05:31.798Z,46.73
2018-12-07T04:08:01.103Z,44.30
2018-12-07T04:10:30.448Z,44.00
2018-12-07T04:12:59.706Z,43.10
2018-12-07T04:15:29.427Z,41.23
2018-12-07T04:17:58.715Z,44.27
2018-12-07T04:20:28.018Z,41.67
2018-12-07T04:22:57.288Z,41.37
2018-12-07T04:25:26.853Z,41.80
2018-12-07T04:27:58.162Z,38.30
2018-12-07T04:30:28.598Z,38.70
2018-12-07T04:32:57.847Z,38.80
2018-12-07T04:35:27.338Z,38.80
2018-12-07T04:37:56.582Z,41.23
2018-12-07T04:40:26.048Z,40.17
2018-12-07T04:42:55.271Z,38.53
2018-12-07T04:45:24.580Z,41.37
2018-12-07T04:47:53.826Z,37.90
2018-12-07T04:50:23.190Z,38.33
2018-12-07T04:52:52.424Z,39.77
2018-12-07T04:55:21.703Z,38.70
2018-12-07T04:57:50.931Z,39.67
2018-12-07T05:00:20.442Z,37.87
2018-12-07T05:02:49.688Z,37.03
2018-12-07T05:05:19.274Z,40.37
2018-12-07T05:07:48.493Z,39.87
2018-12-07T05:10:18.082Z,41.57
2018-12-07T05:12:47.380Z,39.30
2018-12-07T05:15:16.617Z,42.37
2018-12-07T05:17:45.850Z,41.43
2018-12-07T05:20:15.359Z,39.93
2018-12-07T05:22:44.590Z,37.97
2018-12-07T05:25:14.441Z,40.30
2018-12-07T05:27:43.717Z,37.70
2018-12-07T05:30:13.117Z,37.43
2018-12-07T05:32:42.469Z,38.17
2018-12-07T05:35:11.744Z,39.97
2018-12-07T05:37:41.147Z,39.10
2018-12-07T05:40:10.440Z,36.43
2018-12-07T05:42:39.762Z,37.03
2018-12-07T05:45:09.411Z,35.80
2018-12-07T05:47:38.659Z,37.10
2018-12-07T05:50:08.270Z,36.87
2018-12-07T05:52:37.608Z,35.93
2018-12-07T05:55:07.673Z,34.47
2018-12-07T05:57:36.927Z,34.63
2018-12-07T06:00:08.305Z,34.33
2018-12-07T06:02:38.578Z,34.37
2018-12-07T06:05:09.115Z,34.90
2018-12-07T06:07:38.489Z,31.47
2018-12-07T06:10:08.335Z,33.33
2018-12-07T06:12:37.738Z,34.27
2018-12-07T06:15:07.404Z,33.10
2018-12-07T06:17:37.121Z,33.00
2018-12-07T06:20:06.773Z,34.20
2018-12-07T06:22:36.007Z,33.60
2018-12-07T06:25:05.682Z,32.83
2018-12-07T06:27:34.927Z,33.63
2018-12-07T06:30:05.005Z,32.73
2018-12-07T06:32:36.257Z,33.77
2018-12-07T06:35:06.411Z,31.60
2018-12-07T06:37:35.669Z,32.47
2018-12-07T06:40:05.421Z,32.80
2018-12-07T06:42:34.643Z,29.87
2018-12-07T06:45:04.347Z,29.73
2018-12-07T06:47:33.660Z,29.03
2018-12-07T06:50:03.247Z,30.07
2018-12-07T06:52:32.516Z,29.17
2018-12-07T06:55:01.923Z,27.27
2018-12-07T06:57:31.211Z,27.07
2018-12-07T07:00:00.454Z,26.90
2018-12-07T07:02:29.705Z,27.27
2018-12-07T07:04:59.224Z,28.20
2018-12-07T07:07:28.485Z,26.40
2018-12-07T07:09:59.293Z,28.57
2018-12-07T07:12:29.282Z,27.53
2018-12-07T07:14:58.705Z,26.73
2018-12-07T07:17:28.013Z,26.87
2018-12-07T07:19:57.501Z,25.13
2018-12-07T07:22:26.777Z,25.30
2018-12-07T07:24:56.071Z,24.47
2018-12-07T07:27:25.342Z,27.60
2018-12-07T07:29:54.637Z,26.87
2018-12-07T07:32:23.901Z,26.10
2018-12-07T07:34:53.415Z,26.83
2018-12-07T07:37:22.659Z,27.13
2018-12-07T07:39:52.225Z,24.63
2018-12-07T07:42:21.421Z,25.20
2018-12-07T07:44:50.824Z,26.20
2018-12-07T07:47:20.150Z,26.30
2018-12-07T07:49:49.664Z,25.87
2018-12-07T07:52:19.473Z,24.97
2018-12-07T07:54:48.729Z,25.37
2018-12-07T08:01:55.744Z,24.87
2018-12-07T08:04:25.028Z,28.17
2018-12-07T08:06:54.288Z,28.10
2018-12-07T08:09:23.534Z,27.20
2018-12-07T08:11:52.877Z,27.70
2018-12-07T08:14:22.114Z,29.17
2018-12-07T08:16:52.570Z,30.03
2018-12-07T08:19:21.899Z,29.43
2018-12-07T08:21:51.173Z,28.77
2018-12-07T08:24:20.396Z,28.27
2018-12-07T08:26:49.641Z,28.07
2018-12-07T08:29:18.939Z,28.03
2018-12-07T08:31:48.393Z,29.27
2018-12-07T08:34:17.697Z,28.60
2018-12-07T08:36:47.431Z,28.50
2018-12-07T08:39:16.808Z,27.23
2018-12-07T08:41:46.432Z,27.17
2018-12-07T08:44:15.885Z,28.37
2018-12-07T08:46:45.553Z,29.67
2018-12-07T08:49:16.879Z,29.80
2018-12-07T08:51:46.397Z,29.23
2018-12-07T08:54:16.238Z,29.40
2018-12-07T08:56:45.872Z,30.70
2018-12-07T08:59:15.096Z,31.00
2018-12-07T09:01:44.441Z,30.70
2018-12-07T09:04:13.799Z,30.50
2018-12-07T09:06:44.327Z,30.57
2018-12-07T09:09:13.595Z,30.07
2018-12-07T09:11:43.047Z,32.53
2018-12-07T09:14:12.293Z,33.37
2018-12-07T09:16:41.723Z,32.23
2018-12-07T09:19:11.041Z,32.63
2018-12-07T09:21:40.294Z,32.80
2018-12-07T09:24:09.537Z,32.67
2018-12-07T09:26:38.967Z,32.97
2018-12-07T09:29:08.210Z,32.80
2018-12-07T09:31:37.594Z,35.37
2018-12-07T09:34:07.122Z,33.97
2018-12-07T09:36:36.617Z,33.83
2018-12-07T09:39:08.748Z,34.27
2018-12-07T09:41:38.366Z,35.67
2018-12-07T09:44:07.649Z,35.23
2018-12-07T09:46:37.160Z,35.33
2018-12-07T09:49:06.348Z,36.83
2018-12-07T09:51:35.852Z,37.03
2018-12-07T09:54:05.168Z,37.93
2018-12-07T09:56:34.415Z,36.83
2018-12-07T09:59:03.657Z,39.07
2018-12-07T10:01:33.187Z,39.67
2018-12-07T10:05:31.952Z,40.00
2018-12-07T10:08:01.493Z,38.10
2018-12-07T10:10:32.122Z,39.27
2018-12-07T10:13:07.931Z,37.27
2018-12-07T10:15:33.043Z,38.50
2018-12-07T10:18:02.536Z,38.13
2018-12-07T10:20:31.942Z,39.43
2018-12-07T10:23:01.508Z,39.07
2018-12-07T10:25:30.854Z,37.97
2018-12-07T10:28:00.382Z,38.77
2018-12-07T10:30:29.696Z,38.53
2018-12-07T10:32:59.252Z,36.30
2018-12-07T10:35:29.533Z,35.80
2018-12-07T10:37:59.330Z,34.03
2018-12-07T10:40:28.594Z,36.10
2018-12-07T10:42:57.928Z,34.90
2018-12-07T10:45:27.178Z,35.07
2018-12-07T10:47:56.535Z,32.67
2018-12-07T10:50:25.843Z,35.50
2018-12-07T10:52:55.492Z,34.93
2018-12-07T10:55:24.748Z,34.17
2018-12-07T10:57:54.206Z,33.90
2018-12-07T11:00:28.888Z,32.17
2018-12-07T11:03:05.819Z,34.03
2018-12-07T11:05:41.471Z,31.83
2018-12-07T11:08:16.169Z,31.23
2018-12-07T11:10:50.799Z,31.17
2018-12-07T11:13:25.728Z,30.47
2018-12-07T11:16:00.494Z,32.57
2018-12-07T11:18:36.370Z,30.90
2018-12-07T11:21:11.020Z,32.00
2018-12-07T11:23:46.069Z,31.70
2018-12-07T11:27:22.275Z,30.97
2018-12-07T11:29:57.273Z,29.27
2018-12-07T11:32:31.708Z,29.50
2018-12-07T11:35:07.597Z,28.80
2018-12-07T11:37:37.005Z,27.37
2018-12-07T11:40:07.805Z,26.37
2018-12-07T11:42:39.245Z,28.00
2018-12-07T11:45:08.817Z,27.27
2018-12-07T11:47:38.169Z,25.87
2018-12-07T11:50:09.491Z,25.87
2018-12-07T11:52:38.957Z,25.93
2018-12-07T11:55:08.507Z,26.63
2018-12-07T11:57:37.943Z,28.43
2018-12-07T12:00:14.541Z,27.83
2018-12-07T12:02:44.055Z,27.53
2018-12-07T12:05:13.421Z,25.47
2018-12-07T12:07:43.575Z,25.87
2018-12-07T12:10:12.890Z,25.97
2018-12-07T12:12:44.239Z,24.60
2018-12-07T12:15:13.821Z,26.13
2018-12-07T12:17:43.099Z,25.67
2018-12-07T12:20:12.615Z,25.47
2018-12-07T12:22:43.795Z,24.20
2018-12-07T12:25:13.537Z,26.00
2018-12-07T12:27:43.036Z,25.20
2018-12-07T12:30:12.686Z,24.47
2018-12-07T12:32:41.945Z,24.03
2018-12-07T12:35:11.454Z,25.73
2018-12-07T12:37:40.830Z,25.13
2018-12-07T12:40:10.394Z,24.93
2018-12-07T12:42:39.702Z,23.23
2018-12-07T12:45:09.261Z,24.33
2018-12-07T12:47:38.634Z,24.60
2018-12-07T12:50:12.818Z,23.80
2018-12-07T12:52:42.328Z,22.80
2018-12-07T12:55:11.843Z,23.47
2018-12-07T12:57:41.106Z,22.47
2018-12-07T13:00:10.567Z,21.80
2018-12-07T13:02:40.036Z,23.93
2018-12-07T13:05:09.644Z,24.00
2018-12-07T13:07:38.902Z,23.20
2018-12-07T13:10:08.668Z,25.17
2018-12-07T13:12:37.904Z,24.90
2018-12-07T13:15:07.691Z,25.23
2018-12-07T13:17:37.050Z,25.37
2018-12-07T13:20:07.901Z,27.07
2018-12-07T13:22:37.714Z,26.70
2018-12-07T13:25:07.833Z,27.80
2018-12-07T13:27:38.211Z,27.13
2018-12-07T13:30:08.296Z,25.83
2018-12-07T13:32:37.584Z,27.70
2018-12-07T13:35:07.182Z,24.97
2018-12-07T13:37:36.414Z,25.83
2018-12-07T13:40:06.773Z,26.63
2018-12-07T13:42:36.125Z,25.73
2018-12-07T13:45:07.023Z,27.00
2018-12-07T13:47:36.513Z,27.87
2018-12-07T13:50:12.284Z,26.13
2018-12-07T13:52:41.830Z,26.37
2018-12-07T13:55:11.532Z,25.83
2018-12-07T13:57:43.004Z,27.53
2018-12-07T14:00:12.805Z,28.03
2018-12-07T14:02:42.729Z,28.20
2018-12-07T14:05:12.675Z,26.80
2018-12-07T14:07:42.033Z,29.97
2018-12-07T14:10:11.789Z,29.00
2018-12-07T14:12:41.241Z,29.67
2018-12-07T14:15:11.095Z,29.93
2018-12-07T14:17:40.580Z,28.20
2018-12-07T14:20:10.341Z,29.93
2018-12-07T14:22:39.748Z,29.43
2018-12-07T14:25:10.537Z,29.10
2018-12-07T14:27:39.902Z,31.40
2018-12-07T14:30:10.987Z,29.67
2018-12-07T14:32:40.702Z,31.00
2018-12-07T14:35:10.578Z,30.57
2018-12-07T14:37:39.937Z,30.17
2018-12-07T14:40:09.912Z,29.37
2018-12-07T14:42:39.435Z,28.27
2018-12-07T14:45:09.583Z,29.43
2018-12-07T14:47:39.396Z,29.40
2018-12-07T14:50:10.138Z,29.00
2018-12-07T14:52:40.624Z,27.93
2018-12-07T14:55:10.324Z,29.03
2018-12-07T14:57:39.620Z,27.93
2018-12-07T15:00:09.787Z,30.13
2018-12-07T15:02:39.647Z,29.07
2018-12-07T15:05:09.419Z,28.53
2018-12-07T15:07:39.044Z,30.67
2018-12-07T15:10:09.634Z,31.33
2018-12-07T15:12:39.239Z,30.60
2018-12-07T15:15:09.241Z,28.93
2018-12-07T15:17:38.643Z,29.27
2018-12-07T15:20:09.849Z,30.40
2018-12-07T15:22:39.629Z,31.33
2018-12-07T15:25:10.019Z,29.17
2018-12-07T15:27:39.625Z,29.87
2018-12-07T15:30:10.513Z,30.30
2018-12-07T15:32:40.068Z,30.70
2018-12-07T15:35:09.821Z,29.33
2018-12-07T15:37:39.330Z,29.80
2018-12-07T15:40:10.425Z,31.30
2018-12-07T15:42:39.920Z,29.10
2018-12-07T15:45:10.175Z,29.37
2018-12-07T15:47:39.870Z,29.60
2018-12-07T15:50:10.252Z,30.67
2018-12-07T15:52:40.016Z,30.00
2018-12-07T15:55:10.186Z,30.17
2018-12-07T15:57:47.853Z,29.20
2018-12-07T16:00:17.293Z,30.40
2018-12-07T16:02:47.142Z,31.63
2018-12-07T16:05:18.146Z,32.53
2018-12-07T16:07:47.794Z,29.70
2018-12-07T16:10:17.405Z,30.93
2018-12-07T16:12:46.884Z,33.87
2018-12-07T16:15:16.980Z,31.80
2018-12-07T16:17:46.827Z,31.83
2018-12-07T16:20:18.882Z,31.30
2018-12-07T16:22:48.493Z,31.73
2018-12-07T16:25:18.613Z,31.03
2018-12-07T16:27:48.688Z,33.20
2018-12-07T16:30:18.819Z,32.87
2018-12-07T16:32:48.340Z,32.27
2018-12-07T16:35:18.094Z,35.67
2018-12-07T16:37:47.746Z,34.27
2018-12-07T16:40:17.471Z,35.57
2018-12-07T16:42:46.944Z,36.13
2018-12-07T16:45:16.671Z,34.60
2018-12-07T16:47:46.500Z,37.67
2018-12-07T16:50:16.547Z,36.97
2018-12-07T16:52:46.283Z,38.10
2018-12-07T16:55:16.139Z,40.53
2018-12-07T16:57:45.677Z,40.20
2018-12-07T17:00:15.229Z,41.10
2018-12-07T17:02:45.007Z,40.43
2018-12-07T17:05:14.738Z,42.50
2018-12-07T17:07:44.252Z,43.60
2018-12-07T17:10:15.045Z,43.10
2018-12-07T17:12:46.028Z,43.13
2018-12-07T17:15:15.722Z,46.43
2018-12-07T17:17:45.378Z,44.43
2018-12-07T17:20:15.379Z,45.47
2018-12-07T17:22:45.032Z,43.23
2018-12-07T17:25:14.705Z,45.73
2018-12-07T17:27:44.165Z,43.47
2018-12-07T17:30:13.722Z,43.87
2018-12-07T17:32:42.960Z,43.73
2018-12-07T17:35:12.672Z,43.87
2018-12-07T17:37:42.273Z,38.53
2018-12-07T17:40:11.731Z,35.43
2018-12-07T17:42:41.237Z,38.03
2018-12-07T17:45:11.285Z,38.00
2018-12-07T17:47:41.106Z,41.03
2018-12-07T17:50:11.929Z,40.03
2018-12-07T17:52:41.581Z,36.90
2018-12-07T17:55:11.090Z,41.53
2018-12-07T17:57:40.861Z,39.97
2018-12-07T18:00:13.414Z,36.67
2018-12-07T18:02:43.971Z,33.23
2018-12-07T18:05:14.021Z,32.70
2018-12-07T18:07:43.712Z,34.27
2018-12-07T18:10:13.775Z,33.07
2018-12-07T18:12:44.657Z,32.30
2018-12-07T18:15:14.780Z,39.03
2018-12-07T18:17:44.443Z,33.67
2018-12-07T18:20:14.825Z,29.10
2018-12-07T18:22:44.416Z,29.80
2018-12-07T18:25:14.969Z,32.77
2018-12-07T18:27:44.391Z,29.97
2018-12-07T18:30:14.441Z,26.93
2018-12-07T18:32:44.381Z,26.53
2018-12-07T18:35:13.969Z,26.80
2018-12-07T18:37:43.519Z,27.87
2018-12-07T18:40:13.706Z,26.47
2018-12-07T18:42:43.737Z,26.77
2018-12-07T18:45:13.796Z,25.30
2018-12-07T18:47:43.556Z,24.17
2018-12-07T18:50:13.514Z,26.50
2018-12-07T18:52:43.137Z,25.83
2018-12-07T18:55:13.204Z,25.83
2018-12-07T18:57:43.198Z,23.47
2018-12-07T19:00:13.324Z,22.93
2018-12-07T19:02:43.661Z,23.67
2018-12-07T19:05:13.850Z,23.43
2018-12-07T19:07:43.533Z,23.20
2018-12-07T19:10:13.847Z,24.30
2018-12-07T19:12:43.952Z,24.90
2018-12-07T19:15:15.667Z,23.70
2018-12-07T19:17:46.809Z,25.40
2018-12-07T19:20:16.647Z,25.57
2018-12-07T19:22:46.370Z,24.10
2018-12-07T19:25:16.342Z,24.30
2018-12-07T19:27:46.883Z,23.20
2018-12-07T19:30:17.379Z,24.20
2018-12-07T19:32:48.482Z,24.57
2018-12-07T19:35:18.536Z,24.53
2018-12-07T19:37:48.368Z,25.93
2018-12-07T19:40:17.964Z,26.90
2018-12-07T19:42:47.575Z,26.77
2018-12-07T19:45:17.454Z,26.37
2018-12-07T19:47:47.340Z,25.20
2018-12-07T19:50:17.514Z,26.10
2018-12-07T19:52:47.221Z,34.60
2018-12-07T19:55:17.296Z,26.13
2018-12-07T19:57:47.862Z,27.47
2018-12-07T20:00:18.208Z,33.33
2018-12-07T20:02:50.431Z,26.50
2018-12-07T20:05:20.581Z,26.87
2018-12-07T20:07:50.385Z,34.63
2018-12-07T20:10:20.232Z,30.57
2018-12-07T20:12:49.807Z,34.30
2018-12-07T20:15:21.004Z,27.93
2018-12-07T20:20:26.552Z,31.30
2018-12-07T20:22:56.569Z,29.00
2018-12-07T20:25:26.552Z,25.13
2018-12-07T20:27:57.074Z,26.13
2018-12-07T20:30:26.929Z,25.83
2018-12-07T20:32:56.522Z,27.13
2018-12-07T20:35:26.318Z,28.37
2018-12-07T20:37:56.157Z,27.77
2018-12-07T20:40:25.717Z,27.30
2018-12-07T20:42:55.054Z,28.83
2018-12-07T20:45:24.739Z,31.93
2018-12-07T20:47:54.386Z,28.93
2018-12-07T20:50:24.398Z,26.90
2018-12-07T20:52:53.977Z,27.27
2018-12-07T20:55:23.923Z,25.67
2018-12-07T20:57:53.655Z,26.33
2018-12-07T21:00:23.537Z,26.93
2018-12-07T21:02:54.378Z,27.80
2018-12-07T21:07:42.296Z,29.17
2018-12-07T21:11:21.865Z,25.33
2018-12-07T21:14:03.461Z,26.13
2018-12-07T21:17:41.449Z,26.60
2018-12-07T21:20:23.079Z,26.47
2018-12-07T21:22:53.783Z,27.00
2018-12-07T21:25:23.771Z,27.60
2018-12-07T21:27:53.998Z,28.10
2018-12-07T21:31:03.969Z,27.57
2018-12-07T21:33:57.739Z,27.97
2018-12-07T21:36:44.987Z,29.57
2018-12-07T21:39:28.794Z,29.30
2018-12-07T21:41:58.620Z,29.73
2018-12-07T21:44:28.033Z,30.40
2018-12-07T21:46:58.063Z,28.20
2018-12-07T21:49:29.926Z,29.33
2018-12-07T21:52:21.061Z,30.00
2018-12-07T21:54:50.598Z,31.10
2018-12-07T21:57:20.435Z,30.53
2018-12-07T21:59:50.002Z,30.87
2018-12-07T22:02:20.716Z,30.47
2018-12-07T22:04:50.080Z,30.33
2018-12-07T22:07:19.952Z,31.00
2018-12-07T22:09:49.406Z,32.67
2018-12-07T22:12:19.349Z,31.77
2018-12-07T22:14:48.968Z,33.00
2018-12-07T22:17:18.382Z,34.27
2018-12-07T22:19:47.977Z,34.20
2018-12-07T22:22:17.664Z,33.83
2018-12-07T22:24:47.966Z,35.60
2018-12-07T22:27:18.615Z,35.67
2018-12-07T22:29:48.228Z,38.17
2018-12-07T22:32:17.985Z,37.83
2018-12-07T22:34:47.213Z,36.90
2018-12-07T22:37:17.105Z,37.50
2018-12-07T22:39:46.503Z,38.43
2018-12-07T22:42:16.115Z,37.63
2018-12-07T22:44:46.156Z,38.47
2018-12-07T22:47:16.086Z,37.53
2018-12-07T22:49:45.455Z,37.80
2018-12-07T22:52:15.019Z,39.70
2018-12-07T22:54:44.267Z,38.00
2018-12-07T22:57:13.931Z,37.53
2018-12-07T22:59:43.303Z,35.23
2018-12-07T23:02:12.975Z,36.03
2018-12-07T23:04:42.417Z,38.83
2018-12-07T23:07:12.006Z,35.50
2018-12-07T23:09:41.428Z,34.23
2018-12-07T23:12:10.290Z,32.53
2018-12-07T23:14:39.670Z,32.53
2018-12-07T23:17:09.286Z,32.27
2018-12-07T23:19:38.686Z,33.43
2018-12-07T23:22:08.500Z,34.13
2018-12-07T23:24:37.898Z,33.17
2018-12-07T23:27:07.434Z,34.03
2018-12-07T23:29:36.728Z,35.27
2018-12-07T23:32:06.528Z,36.93
2018-12-07T23:34:35.868Z,35.87
2018-12-07T23:37:05.407Z,36.20
2018-12-07T23:39:34.649Z,33.97
2018-12-07T23:42:04.227Z,34.80
2018-12-07T23:44:33.437Z,35.17
2018-12-07T23:47:03.046Z,34.97
2018-12-07T23:49:32.265Z,33.23
2018-12-07T23:52:01.963Z,35.07
2018-12-07T23:54:31.284Z,35.87
2018-12-07T23:57:01.565Z,35.23
2018-12-07T23:59:30.899Z,32.77
